createdAt,value
2019-04-28T00:00:03.425Z,11.10
2019-04-28T00:02:32.166Z,11.10
2019-04-28T00:05:01.547Z,11.10
2019-04-28T00:07:32.148Z,11.10
2019-04-28T00:10:01.090Z,11.20
2019-04-28T00:12:31.107Z,11.10
2019-04-28T00:14:59.948Z,11.10
2019-04-28T00:17:30.849Z,11.10
2019-04-28T00:20:01.388Z,11.20
2019-04-28T00:22:36.484Z,11.20
2019-04-28T00:25:31.225Z,11.20
2019-04-28T00:28:01.624Z,11.30
2019-04-28T00:30:31.715Z,11.30
2019-04-28T00:33:01.774Z,11.40
2019-04-28T00:35:32.191Z,11.40
2019-04-28T00:38:01.478Z,11.50
2019-04-28T00:40:31.643Z,11.40
2019-04-28T00:43:00.944Z,11.30
2019-04-28T00:45:31.397Z,11.30
2019-04-28T00:48:01.035Z,11.20
2019-04-28T00:50:31.517Z,11.10
2019-04-28T00:53:01.742Z,11.10
2019-04-28T00:55:32.007Z,11.00
2019-04-28T00:58:01.057Z,10.90
2019-04-28T01:00:32.392Z,10.90
2019-04-28T01:03:02.170Z,10.80
2019-04-28T01:05:31.256Z,10.80
2019-04-28T01:08:01.128Z,10.80
2019-04-28T01:10:31.186Z,10.70
2019-04-28T01:13:01.969Z,10.70
2019-04-28T01:15:39.599Z,10.60
2019-04-28T01:18:16.202Z,10.60
2019-04-28T01:20:45.026Z,10.60
2019-04-28T01:23:16.425Z,10.60
2019-04-28T01:25:45.398Z,10.50
2019-04-28T01:28:14.093Z,10.50
2019-04-28T01:30:56.838Z,10.50
2019-04-28T01:33:57.008Z,10.40
2019-04-28T01:36:25.697Z,10.40
2019-04-28T01:38:54.583Z,10.50
2019-04-28T01:41:24.298Z,10.50
2019-04-28T01:43:53.289Z,10.60
2019-04-28T01:46:22.319Z,10.60
2019-04-28T01:48:51.373Z,10.60
2019-04-28T01:51:20.870Z,10.70
2019-04-28T01:53:50.457Z,10.70
2019-04-28T01:56:20.451Z,10.70
2019-04-28T01:58:52.242Z,10.70
2019-04-28T02:01:21.099Z,10.70
2019-04-28T02:03:50.284Z,10.70
2019-04-28T02:06:19.878Z,10.80
2019-04-28T02:08:51.137Z,10.80
2019-04-28T02:11:19.825Z,10.70
2019-04-28T02:13:49.713Z,10.60
2019-04-28T02:16:19.482Z,10.60
2019-04-28T02:18:49.680Z,10.60
2019-04-28T02:21:46.966Z,10.60
2019-04-28T02:24:28.237Z,10.50
2019-04-28T02:26:57.369Z,10.50
2019-04-28T02:29:26.044Z,10.50
2019-04-28T02:31:54.739Z,10.50
2019-04-28T02:34:23.389Z,10.50
2019-04-28T02:36:53.965Z,10.50
2019-04-28T02:39:22.745Z,10.40
2019-04-28T02:41:52.363Z,10.40
2019-04-28T02:44:23.559Z,10.50
2019-04-28T02:46:51.499Z,10.50
2019-04-28T02:49:40.579Z,10.50
2019-04-28T02:52:20.661Z,10.50
2019-04-28T02:54:50.853Z,10.40
2019-04-28T02:57:20.833Z,10.40
2019-04-28T02:59:50.777Z,10.30
2019-04-28T03:02:20.993Z,10.20
2019-04-28T03:04:50.678Z,10.10
2019-04-28T03:07:21.807Z,10.10
2019-04-28T03:09:52.040Z,10.10
2019-04-28T03:12:21.817Z,10.10
2019-04-28T03:14:50.830Z,10.10
2019-04-28T03:17:24.147Z,10.10
2019-04-28T03:19:52.883Z,10.10
2019-04-28T03:22:21.635Z,10.00
2019-04-28T03:24:52.156Z,10.00
2019-04-28T03:27:46.439Z,10.10
2019-04-28T03:30:34.056Z,10.00
2019-04-28T03:33:10.810Z,10.00
2019-04-28T03:35:34.625Z,9.90
2019-04-28T03:38:03.259Z,9.90
2019-04-28T03:40:33.830Z,9.80
2019-04-28T03:43:03.290Z,9.70
2019-04-28T03:45:37.578Z,9.70
2019-04-28T03:48:06.228Z,9.70
2019-04-28T03:50:35.156Z,9.60
2019-04-28T03:53:03.823Z,9.60
2019-04-28T03:55:35.031Z,9.60
2019-04-28T03:58:02.901Z,9.60
2019-04-28T04:00:31.871Z,9.60
2019-04-28T04:03:01.049Z,9.60
2019-04-28T04:05:30.803Z,9.60
2019-04-28T04:08:00.766Z,9.60
2019-04-28T04:10:50.271Z,9.60
2019-04-28T04:13:34.360Z,9.70
2019-04-28T04:16:31.133Z,9.60
2019-04-28T04:19:00.853Z,9.60
2019-04-28T04:21:31.010Z,9.60
2019-04-28T04:24:01.032Z,9.60
2019-04-28T04:26:33.656Z,9.60
2019-04-28T04:29:02.473Z,9.60
2019-04-28T04:31:31.924Z,9.60
2019-04-28T04:34:03.206Z,9.60
2019-04-28T04:36:31.412Z,9.50
2019-04-28T04:39:01.797Z,9.40
2019-04-28T04:41:30.803Z,9.50
2019-04-28T04:44:01.129Z,9.40
2019-04-28T04:46:31.382Z,9.50
2019-04-28T04:49:01.023Z,9.60
2019-04-28T04:51:30.812Z,9.60
2019-04-28T04:54:01.003Z,9.50
2019-04-28T04:56:30.363Z,9.50
2019-04-28T04:59:02.207Z,9.40
2019-04-28T05:01:54.926Z,9.30
2019-04-28T05:04:55.092Z,9.30
2019-04-28T05:07:23.734Z,9.30
2019-04-28T05:09:52.391Z,9.30
2019-04-28T05:12:21.088Z,9.30
2019-04-28T05:14:50.200Z,9.30
2019-04-28T05:17:20.319Z,9.30
2019-04-28T05:19:49.748Z,9.30
2019-04-28T05:22:20.247Z,9.30
2019-04-28T05:24:57.870Z,9.30
2019-04-28T05:27:27.338Z,9.30
2019-04-28T05:29:56.947Z,9.30
2019-04-28T05:32:39.282Z,9.20
2019-04-28T05:34:57.171Z,9.30
2019-04-28T05:37:25.845Z,9.30
2019-04-28T05:39:54.491Z,9.30
2019-04-28T05:42:23.219Z,9.30
2019-04-28T05:44:51.881Z,9.30
2019-04-28T05:47:20.569Z,9.30
2019-04-28T05:50:02.001Z,9.30
2019-04-28T05:53:01.833Z,9.30
2019-04-28T05:55:50.193Z,9.30
2019-04-28T05:58:26.861Z,9.40
2019-04-28T06:01:10.143Z,9.40
2019-04-28T06:03:40.424Z,9.40
2019-04-28T06:06:10.233Z,9.50
2019-04-28T06:08:54.662Z,9.40
2019-04-28T06:11:31.238Z,9.40
2019-04-28T06:14:00.360Z,9.30
2019-04-28T06:16:30.489Z,9.30
2019-04-28T06:18:59.960Z,9.30
2019-04-28T06:21:29.012Z,9.30
2019-04-28T06:23:57.736Z,9.40
2019-04-28T06:26:26.658Z,9.40
2019-04-28T06:28:55.366Z,9.60
2019-04-28T06:31:24.149Z,9.60
2019-04-28T06:33:54.831Z,9.60
2019-04-28T06:36:23.760Z,9.60
2019-04-28T06:38:52.835Z,9.80
2019-04-28T06:41:21.751Z,9.80
2019-04-28T06:43:50.668Z,9.80
2019-04-28T06:46:19.607Z,9.90
2019-04-28T06:48:49.011Z,10.10
2019-04-28T06:51:17.656Z,10.40
2019-04-28T06:53:46.351Z,10.60
2019-04-28T06:56:22.850Z,10.90
2019-04-28T06:58:58.768Z,11.20
2019-04-28T07:01:22.552Z,11.90
2019-04-28T07:03:51.487Z,12.00
2019-04-28T07:06:20.170Z,12.20
2019-04-28T07:08:49.114Z,12.20
2019-04-28T07:11:18.311Z,12.50
2019-04-28T07:13:46.952Z,12.50
2019-04-28T07:16:16.056Z,12.40
2019-04-28T07:18:45.346Z,12.10
2019-04-28T07:21:26.536Z,11.90
2019-04-28T07:23:55.250Z,11.80
2019-04-28T07:26:24.120Z,11.70
2019-04-28T07:28:52.771Z,11.60
2019-04-28T07:31:23.158Z,11.10
2019-04-28T07:33:51.834Z,11.00
2019-04-28T07:36:20.750Z,10.80
2019-04-28T07:38:49.995Z,10.70
2019-04-28T07:41:18.700Z,10.70
2019-04-28T07:43:47.521Z,11.00
2019-04-28T07:46:16.209Z,11.20
2019-04-28T07:48:44.902Z,11.20
2019-04-28T07:51:13.767Z,11.20
2019-04-28T07:53:55.544Z,11.20
2019-04-28T07:56:24.247Z,10.80
2019-04-28T07:58:53.521Z,10.70
2019-04-28T08:01:22.729Z,10.60
2019-04-28T08:03:52.929Z,10.60
2019-04-28T08:06:21.578Z,10.60
2019-04-28T08:08:50.295Z,10.50
2019-04-28T08:11:18.970Z,10.50
2019-04-28T08:13:48.210Z,10.40
2019-04-28T08:16:16.922Z,10.40
2019-04-28T08:18:45.719Z,10.50
2019-04-28T08:21:14.373Z,10.60
2019-04-28T08:23:47.384Z,10.40
2019-04-28T08:26:13.941Z,10.20
2019-04-28T08:28:42.660Z,9.90
2019-04-28T08:31:12.959Z,9.80
2019-04-28T08:33:47.955Z,9.70
2019-04-28T08:36:16.696Z,9.70
2019-04-28T08:38:45.473Z,9.70
2019-04-28T08:41:14.461Z,9.80
2019-04-28T08:43:43.160Z,9.90
2019-04-28T08:46:13.087Z,10.00
2019-04-28T08:48:41.816Z,10.00
2019-04-28T08:51:10.916Z,10.10
2019-04-28T08:53:40.003Z,10.00
2019-04-28T08:56:08.747Z,10.20
2019-04-28T08:58:38.051Z,10.40
2019-04-28T09:01:06.745Z,10.70
2019-04-28T09:03:35.682Z,11.10
2019-04-28T09:06:04.447Z,11.60
2019-04-28T09:08:34.116Z,11.60
2019-04-28T09:11:02.758Z,11.70
2019-04-28T09:13:31.680Z,11.80
2019-04-28T09:16:00.346Z,12.00
2019-04-28T09:18:29.345Z,12.20
2019-04-28T09:20:58.010Z,12.10
2019-04-28T09:23:26.666Z,12.30
2019-04-28T09:25:55.340Z,12.50
2019-04-28T09:28:24.032Z,12.40
2019-04-28T09:30:52.721Z,12.50
2019-04-28T09:33:21.361Z,12.60
2019-04-28T09:35:50.039Z,12.90
2019-04-28T09:38:18.724Z,13.30
2019-04-28T09:40:47.650Z,13.50
2019-04-28T09:43:21.191Z,13.40
2019-04-28T09:46:05.721Z,13.30
2019-04-28T09:48:34.443Z,13.00
2019-04-28T09:51:03.074Z,12.60
2019-04-28T09:53:31.717Z,12.70
2019-04-28T09:56:00.349Z,12.80
2019-04-28T09:58:29.285Z,12.80
2019-04-28T10:00:58.387Z,12.70
2019-04-28T10:03:27.066Z,12.70
2019-04-28T10:05:55.743Z,12.50
2019-04-28T10:08:24.418Z,12.50
2019-04-28T10:10:53.080Z,12.60
2019-04-28T10:13:21.700Z,12.70
2019-04-28T10:15:50.837Z,12.70
2019-04-28T10:18:20.309Z,13.00
2019-04-28T10:20:49.274Z,13.10
2019-04-28T10:23:17.952Z,13.20
2019-04-28T10:25:46.633Z,13.50
2019-04-28T10:28:15.265Z,13.50
2019-04-28T10:30:44.015Z,13.10
2019-04-28T10:33:12.997Z,12.90
2019-04-28T10:35:41.750Z,13.10
2019-04-28T10:38:10.473Z,13.40
2019-04-28T10:40:49.979Z,14.00
2019-04-28T10:43:19.208Z,14.00
2019-04-28T10:45:49.093Z,14.30
2019-04-28T10:48:17.869Z,14.50
2019-04-28T10:50:46.996Z,14.10
2019-04-28T10:53:15.754Z,13.70
2019-04-28T10:55:44.429Z,13.20
2019-04-28T10:58:13.083Z,12.80
2019-04-28T11:00:42.151Z,12.40
2019-04-28T11:03:11.205Z,12.20
2019-04-28T11:05:44.045Z,12.10
2019-04-28T11:08:35.814Z,12.30
2019-04-28T11:11:15.285Z,12.60
2019-04-28T11:13:44.058Z,13.10
2019-04-28T11:16:14.453Z,13.60
2019-04-28T11:18:43.560Z,14.20
2019-04-28T11:21:12.191Z,15.00
2019-04-28T11:23:40.934Z,15.50
2019-04-28T11:26:09.683Z,15.60
2019-04-28T11:28:38.835Z,15.60
2019-04-28T11:31:08.024Z,15.40
2019-04-28T11:33:43.241Z,15.20
2019-04-28T11:36:12.733Z,15.10
2019-04-28T11:38:41.430Z,15.00
2019-04-28T11:41:11.582Z,14.80
2019-04-28T11:43:40.819Z,14.40
2019-04-28T11:46:11.198Z,14.40
2019-04-28T11:48:40.731Z,14.80
2019-04-28T11:51:28.659Z,14.90
2019-04-28T11:53:57.366Z,15.00
2019-04-28T11:56:26.123Z,15.10
2019-04-28T11:58:54.827Z,14.80
2019-04-28T12:01:23.874Z,14.80
2019-04-28T12:03:54.654Z,15.00
2019-04-28T12:06:23.481Z,15.00
2019-04-28T12:08:56.762Z,14.70
2019-04-28T12:11:37.781Z,14.30
2019-04-28T12:14:19.832Z,14.30
2019-04-28T12:17:06.577Z,14.60
2019-04-28T12:19:42.804Z,15.00
2019-04-28T12:22:11.796Z,15.20
2019-04-28T12:24:40.985Z,15.00
2019-04-28T12:27:09.664Z,14.80
2019-04-28T12:29:39.168Z,14.60
2019-04-28T12:32:07.930Z,14.10
2019-04-28T12:34:36.916Z,13.60
2019-04-28T12:37:05.643Z,13.10
2019-04-28T12:39:34.319Z,13.00
2019-04-28T12:42:03.226Z,13.20
2019-04-28T12:44:31.996Z,13.40
2019-04-28T12:47:00.752Z,13.70
2019-04-28T12:49:34.251Z,13.90
2019-04-28T12:52:04.398Z,14.20
2019-04-28T12:54:34.815Z,14.40
2019-04-28T12:57:03.493Z,14.50
2019-04-28T12:59:38.858Z,14.20
2019-04-28T13:02:25.566Z,14.10
2019-04-28T13:04:57.554Z,14.00
2019-04-28T13:07:26.189Z,13.90
2019-04-28T13:09:55.206Z,13.70
2019-04-28T13:12:23.961Z,13.80
2019-04-28T13:14:52.635Z,13.70
2019-04-28T13:17:21.281Z,13.50
2019-04-28T13:19:50.074Z,13.20
2019-04-28T13:22:18.734Z,13.20
2019-04-28T13:24:47.445Z,13.10
2019-04-28T13:27:16.180Z,13.20
2019-04-28T13:29:44.843Z,13.20
2019-04-28T13:32:13.680Z,13.40
2019-04-28T13:34:42.454Z,13.60
2019-04-28T13:37:11.216Z,13.60
2019-04-28T13:39:54.562Z,13.50
2019-04-28T13:42:23.521Z,13.30
2019-04-28T13:45:02.459Z,13.30
2019-04-28T13:47:31.261Z,13.20
2019-04-28T13:50:10.332Z,13.20
2019-04-28T13:52:39.096Z,13.00
2019-04-28T13:55:34.848Z,13.00
2019-04-28T13:58:04.443Z,13.30
2019-04-28T14:00:45.219Z,13.70
2019-04-28T14:03:23.737Z,13.80
2019-04-28T14:05:57.411Z,14.20
2019-04-28T14:08:26.351Z,14.40
2019-04-28T14:10:55.353Z,14.30
2019-04-28T14:13:24.226Z,14.40
2019-04-28T14:15:52.920Z,14.20
2019-04-28T14:18:21.683Z,14.40
2019-04-28T14:20:50.609Z,14.50
2019-04-28T14:23:19.284Z,14.60
2019-04-28T14:25:48.300Z,14.60
2019-04-28T14:28:16.976Z,14.60
2019-04-28T14:30:46.123Z,14.70
2019-04-28T14:33:16.489Z,14.80
2019-04-28T14:35:45.190Z,14.90
2019-04-28T14:38:13.905Z,14.90
2019-04-28T14:40:42.743Z,14.90
2019-04-28T14:43:11.792Z,14.50
2019-04-28T14:45:40.570Z,14.60
2019-04-28T14:48:09.270Z,14.70
2019-04-28T14:50:37.933Z,14.60
2019-04-28T14:53:08.614Z,14.60
2019-04-28T14:55:37.409Z,14.70
2019-04-28T14:58:06.244Z,15.00
2019-04-28T15:00:39.709Z,15.30
2019-04-28T15:03:11.450Z,15.20
2019-04-28T15:06:10.481Z,15.10
2019-04-28T15:08:51.692Z,15.00
2019-04-28T15:11:28.133Z,14.80
2019-04-28T15:13:56.798Z,14.50
2019-04-28T15:16:25.515Z,14.00
2019-04-28T15:18:54.230Z,13.50
2019-04-28T15:21:23.071Z,13.60
2019-04-28T15:23:51.888Z,13.60
2019-04-28T15:26:21.606Z,13.60
2019-04-28T15:28:50.554Z,13.70
2019-04-28T15:31:19.696Z,13.80
2019-04-28T15:33:48.808Z,14.00
2019-04-28T15:36:17.742Z,14.20
2019-04-28T15:38:46.800Z,14.10
2019-04-28T15:41:21.685Z,14.20
2019-04-28T15:43:46.338Z,14.00
2019-04-28T15:46:15.604Z,14.10
2019-04-28T15:48:44.713Z,14.10
2019-04-28T15:51:13.781Z,14.10
2019-04-28T15:53:44.090Z,14.10
2019-04-28T15:56:30.953Z,13.90
2019-04-28T15:58:59.786Z,13.80
2019-04-28T16:01:28.439Z,13.90
2019-04-28T16:03:58.415Z,14.20
2019-04-28T16:06:27.182Z,14.40
2019-04-28T16:08:55.811Z,14.60
2019-04-28T16:11:24.476Z,14.60
2019-04-28T16:13:53.494Z,14.60
2019-04-28T16:16:22.354Z,14.60
2019-04-28T16:18:51.073Z,14.40
2019-04-28T16:21:19.854Z,14.30
2019-04-28T16:23:48.611Z,14.40
2019-04-28T16:26:17.353Z,14.40
2019-04-28T16:28:46.223Z,14.20
2019-04-28T16:31:15.214Z,14.10
2019-04-28T16:33:44.525Z,14.20
2019-04-28T16:36:13.279Z,14.10
2019-04-28T16:38:41.945Z,14.00
2019-04-28T16:41:10.659Z,14.00
2019-04-28T16:43:39.346Z,13.90
2019-04-28T16:46:08.352Z,14.00
2019-04-28T16:48:37.006Z,13.90
2019-04-28T16:51:05.712Z,13.80
2019-04-28T16:53:34.933Z,13.70
2019-04-28T16:56:13.196Z,13.60
2019-04-28T16:58:57.457Z,13.40
2019-04-28T17:01:37.653Z,13.30
2019-04-28T17:04:06.416Z,13.40
2019-04-28T17:06:35.106Z,13.30
2019-04-28T17:09:05.610Z,13.30
2019-04-28T17:11:34.763Z,13.20
2019-04-28T17:14:04.047Z,13.10
2019-04-28T17:16:33.559Z,13.20
2019-04-28T17:19:02.731Z,13.10
2019-04-28T17:21:31.947Z,12.90
2019-04-28T17:24:00.840Z,12.90
2019-04-28T17:26:29.510Z,12.80
2019-04-28T17:28:58.476Z,12.70
2019-04-28T17:31:27.521Z,12.60
2019-04-28T17:33:56.920Z,12.50
2019-04-28T17:36:26.220Z,12.40
2019-04-28T17:38:55.136Z,12.40
2019-04-28T17:41:24.288Z,12.40
2019-04-28T17:43:53.359Z,12.40
2019-04-28T17:46:22.174Z,12.50
2019-04-28T17:48:56.412Z,12.40
2019-04-28T17:51:25.221Z,12.30
2019-04-28T17:53:54.021Z,12.20
2019-04-28T17:56:23.016Z,12.20
2019-04-28T17:58:51.694Z,12.00
2019-04-28T18:01:44.649Z,12.00
2019-04-28T18:04:37.470Z,12.00
2019-04-28T18:07:16.862Z,11.90
2019-04-28T18:09:45.886Z,11.80
2019-04-28T18:12:14.844Z,11.70
2019-04-28T18:14:45.272Z,11.70
2019-04-28T18:17:34.073Z,11.60
2019-04-28T18:20:03.054Z,11.60
2019-04-28T18:22:31.771Z,11.50
2019-04-28T18:25:01.743Z,11.40
2019-04-28T18:27:30.470Z,11.30
2019-04-28T18:29:59.168Z,11.30
2019-04-28T18:32:49.775Z,11.30
2019-04-28T18:35:33.825Z,11.20
2019-04-28T18:38:08.407Z,11.20
2019-04-28T18:40:43.960Z,11.10
2019-04-28T18:43:20.183Z,11.10
2019-04-28T18:45:49.248Z,11.00
2019-04-28T18:48:18.849Z,11.00
2019-04-28T18:50:47.871Z,11.00
2019-04-28T18:53:17.013Z,10.90
2019-04-28T18:55:45.728Z,10.90
2019-04-28T18:58:14.405Z,10.90
2019-04-28T19:00:48.735Z,10.90
2019-04-28T19:03:17.406Z,10.90
2019-04-28T19:05:48.036Z,10.80
2019-04-28T19:08:48.130Z,10.80
2019-04-28T19:11:30.707Z,10.80
2019-04-28T19:14:04.121Z,10.80
2019-04-28T19:16:50.655Z,10.80
2019-04-28T19:19:20.821Z,10.80
2019-04-28T19:21:56.219Z,10.80
2019-04-28T19:24:25.629Z,10.80
2019-04-28T19:26:54.755Z,10.80
2019-04-28T19:29:23.454Z,10.70
2019-04-28T19:31:52.467Z,10.80
2019-04-28T19:34:21.198Z,10.70
2019-04-28T19:36:49.842Z,10.70
2019-04-28T19:39:18.500Z,10.70
2019-04-28T19:41:47.311Z,10.60
2019-04-28T19:44:16.050Z,10.70
2019-04-28T19:46:44.765Z,10.60
2019-04-28T19:49:14.714Z,10.60
2019-04-28T19:51:43.434Z,10.60
2019-04-28T19:54:12.933Z,10.50
2019-04-28T19:56:46.820Z,10.60
2019-04-28T19:59:20.189Z,10.50
2019-04-28T20:01:49.138Z,10.50
2019-04-28T20:04:18.147Z,10.50
2019-04-28T20:06:46.934Z,10.40
2019-04-28T20:09:15.660Z,10.40
2019-04-28T20:11:44.347Z,10.40
2019-04-28T20:14:13.518Z,10.40
2019-04-28T20:16:42.604Z,10.40
2019-04-28T20:19:11.677Z,10.50
2019-04-28T20:21:40.881Z,10.40
2019-04-28T20:24:09.616Z,10.40
2019-04-28T20:26:38.297Z,10.40
2019-04-28T20:29:06.956Z,10.40
2019-04-28T20:31:35.611Z,10.50
2019-04-28T20:34:04.527Z,10.40
2019-04-28T20:36:47.979Z,10.40
2019-04-28T20:39:27.171Z,10.40
2019-04-28T20:41:57.696Z,10.40
2019-04-28T20:44:27.045Z,10.40
2019-04-28T20:46:55.799Z,10.40
2019-04-28T20:49:24.500Z,10.40
2019-04-28T20:51:53.276Z,10.40
2019-04-28T20:54:22.343Z,10.40
2019-04-28T20:56:51.563Z,10.40
2019-04-28T20:59:20.430Z,10.40
2019-04-28T21:01:49.289Z,10.50
2019-04-28T21:04:17.979Z,10.50
2019-04-28T21:06:47.697Z,10.50
2019-04-28T21:09:16.890Z,10.50
2019-04-28T21:11:45.993Z,10.50
2019-04-28T21:14:14.645Z,10.40
2019-04-28T21:16:43.713Z,10.50
2019-04-28T21:19:12.372Z,10.50
2019-04-28T21:21:41.063Z,10.40
2019-04-28T21:24:10.045Z,10.50
2019-04-28T21:26:38.748Z,10.40
2019-04-28T21:29:07.511Z,10.40
2019-04-28T21:31:36.195Z,10.40
2019-04-28T21:34:04.973Z,10.40
2019-04-28T21:36:33.623Z,10.40
2019-04-28T21:39:02.306Z,10.40
2019-04-28T21:41:30.971Z,10.40
2019-04-28T21:44:08.128Z,10.30
2019-04-28T21:46:42.078Z,10.40
2019-04-28T21:49:18.890Z,10.40
2019-04-28T21:51:47.955Z,10.40
2019-04-28T21:56:16.527Z,10.30
2019-04-28T21:58:45.705Z,10.30
2019-04-28T22:01:18.158Z,10.30
2019-04-28T22:03:46.946Z,10.30
2019-04-28T22:06:15.928Z,10.20
2019-04-28T22:08:44.870Z,10.20
2019-04-28T22:11:13.710Z,10.20
2019-04-28T22:13:42.572Z,10.20
2019-04-28T22:16:11.334Z,10.10
2019-04-28T22:18:40.060Z,10.10
2019-04-28T22:21:08.771Z,10.10
2019-04-28T22:23:54.982Z,10.00
2019-04-28T22:26:48.671Z,10.00
2019-04-28T22:29:17.405Z,10.10
2019-04-28T22:31:46.322Z,10.00
2019-04-28T22:34:15.747Z,10.10
2019-04-28T22:36:46.719Z,10.10
2019-04-28T22:39:16.328Z,10.00
2019-04-28T22:41:45.456Z,10.10
2019-04-28T22:44:14.199Z,10.10
2019-04-28T22:46:43.183Z,10.10
2019-04-28T22:49:12.240Z,10.10
2019-04-28T22:51:41.483Z,10.10
2019-04-28T22:54:22.019Z,10.10
2019-04-28T22:56:57.058Z,10.10
2019-04-28T22:59:30.183Z,10.10
2019-04-28T23:02:03.169Z,10.10
2019-04-28T23:04:42.645Z,10.00
2019-04-28T23:07:11.806Z,10.00
2019-04-28T23:09:41.016Z,10.00
2019-04-28T23:12:10.365Z,10.00
2019-04-28T23:14:39.714Z,10.00
2019-04-28T23:17:10.500Z,9.90
2019-04-28T23:19:41.908Z,9.90
2019-04-28T23:22:16.627Z,9.90
2019-04-28T23:24:45.389Z,9.90
2019-04-28T23:27:15.216Z,9.80
2019-04-28T23:29:43.896Z,9.80
2019-04-28T23:32:12.707Z,9.80
2019-04-28T23:34:41.792Z,9.70
2019-04-28T23:37:10.546Z,9.70
2019-04-28T23:39:39.314Z,9.70
2019-04-28T23:42:18.253Z,9.70
2019-04-28T23:44:47.017Z,9.70
2019-04-28T23:47:15.677Z,9.70
2019-04-28T23:49:44.647Z,9.60
2019-04-28T23:52:31.536Z,9.70
2019-04-28T23:55:03.323Z,9.70
